Terminal Aerodrome Forecast
Issued by NWS

Home | Current Version | Previous Version | Text Only | Print | Product List | Glossary On
Versions: 1 2 3 4 5 6 7 8 9 10 11 12 13 14
000
FTUS45 KTFX 300158 AAB
TAFHLN
TAF AMD
KHLN 300158Z 3002/3024 18010KT P6SM VCSH BKN120
      TEMPO 3002/3006 VRB25G35KT 5SM TSRA BKN040CB
     FM301000 26005KT P6SM SKC
     FM301700 29015KT P6SM SCT070=

USA.gov is the U.S. government's official web portal to all federal, state and local government web resources and services.